Time;durP1;ratioP1;P1;durP2;ratioP2;P2;SDS_P1;SDS_P2;PMS_P1;PMS_P2;Temp;Humidity;BMP_temperature;BMP_pressure;BME280_temperature;BME280_humidity;BME280_pressure;Samples;Min_cycle;Max_cycle;Signal;HPM_P1;HPM_P2
2021/12/12 00:01:32;;;;;;;10.05;3.33;;;;;;;5.09;91.39;102071.25;4972918;28;101263;-34
2021/12/12 00:04:10;;;;;;;4.90;1.75;;;;;;;5.05;91.67;102062.38;4972318;28;96738;-34
2021/12/12 00:06:37;;;;;;;4.30;2.40;;;;;;;5.01;91.56;102049.94;4972671;28;96652;-34
2021/12/12 00:09:13;;;;;;;5.72;3.13;;;;;;;5.08;91.76;102058.75;4971758;28;101450;-34
2021/12/12 00:11:39;;;;;;;8.93;1.95;;;;;;;5.09;91.38;102064.06;4972358;28;101058;-35
2021/12/12 00:14:30;;;;;;;6.35;1.95;;;;;;;5.09;91.85;102064.06;4972549;28;96710;-34
2021/12/12 00:16:57;;;;;;;3.85;2.20;;;;;;;5.06;91.78;102048.03;4973545;28;96790;-34
2021/12/12 00:19:24;;;;;;;4.72;2.88;;;;;;;5.10;91.32;102060.50;4972247;28;100857;-34
2021/12/12 00:21:52;;;;;;;2.83;1.60;;;;;;;5.04;92.04;102041.81;4988665;28;103033;-34
2021/12/12 00:24:18;;;;;;;7.68;3.20;;;;;;;5.10;91.54;102055.13;4972219;28;97909;-34
2021/12/12 00:26:49;;;;;;;5.97;2.50;;;;;;;5.09;91.97;102044.41;4989307;28;96726;-34
2021/12/12 00:29:17;;;;;;;4.95;2.33;;;;;;;5.06;91.87;102037.28;4972119;28;100809;-34
2021/12/12 00:31:45;;;;;;;2.92;1.50;;;;;;;5.08;92.15;102040.84;4973656;28;97400;-34
2021/12/12 00:34:10;;;;;;;3.30;2.22;;;;;;;5.11;91.90;102038.09;4971260;28;96915;-34
2021/12/12 00:36:40;;;;;;;21.02;2.95;;;;;;;5.05;91.70;102024.78;4973613;28;96849;-34
2021/12/12 00:39:10;;;;;;;10.43;1.95;;;;;;;5.11;92.18;102029.16;4972052;28;100848;-34
2021/12/12 00:41:49;;;;;;;6.38;3.05;;;;;;;5.14;92.21;102030.88;4972002;28;100473;-34
2021/12/12 00:44:15;;;;;;;5.68;2.13;;;;;;;5.03;92.16;102015.88;4988719;28;97153;-34
2021/12/12 00:46:42;;;;;;;2.47;1.75;;;;;;;5.10;91.96;102019.31;4971811;28;96872;-34
2021/12/12 00:49:07;;;;;;;2.88;1.67;;;;;;;5.09;92.55;102018.44;4971757;28;101032;-34
2021/12/12 00:51:36;;;;;;;2.42;1.98;;;;;;;5.13;92.29;102027.31;4973521;28;97856;-34
2021/12/12 00:54:03;;;;;;;2.97;1.50;;;;;;;5.05;92.25;102002.41;4971615;28;96831;-34
2021/12/12 00:56:28;;;;;;;6.57;2.33;;;;;;;5.09;92.23;102018.44;4988408;28;96834;-34
2021/12/12 00:58:54;;;;;;;4.57;1.88;;;;;;;5.11;92.69;102011.22;4972802;28;97922;-34
2021/12/12 01:01:24;;;;;;;3.38;2.15;;;;;;;5.09;92.69;102013.06;4972054;28;97830;-34
2021/12/12 01:03:58;;;;;;;3.60;2.35;;;;;;;5.14;92.57;102025.50;4987776;28;96920;-34
2021/12/12 01:06:24;;;;;;;2.75;1.60;;;;;;;5.14;92.50;102020.13;4973132;28;96708;-34
2021/12/12 01:08:52;;;;;;;3.20;1.85;;;;;;;5.13;92.46;102011.22;4988053;28;101141;-34
2021/12/12 01:11:24;;;;;;;8.77;3.33;;;;;;;5.14;92.33;102009.41;4971522;28;101117;-34
2021/12/12 01:13:50;;;;;;;11.10;2.45;;;;;;;5.17;92.58;102007.53;4971618;28;96728;-34
2021/12/12 01:16:22;;;;;;;11.18;1.40;;;;;;;5.17;92.57;102017.38;4971929;28;96882;-34
2021/12/12 01:18:51;;;;;;;;;;;;;;;5.18;92.55;102017.38;4973190;28;99102;-34
2021/12/12 01:21:22;;;;;;;2.35;1.05;;;;;;;5.18;92.99;102016.50;4971430;28;100668;-34
2021/12/12 01:23:59;;;;;;;7.33;2.30;;;;;;;5.21;92.66;102017.28;4972925;28;96566;-34
2021/12/12 01:26:28;;;;;;;4.78;1.52;;;;;;;5.14;93.23;102010.28;4972822;28;96712;-34
2021/12/12 01:28:54;;;;;;;2.83;1.58;;;;;;;5.14;92.71;102006.72;4971120;28;101184;-34
2021/12/12 01:31:25;;;;;;;7.72;1.98;;;;;;;5.20;92.92;102017.34;4972610;28;97869;-34
2021/12/12 01:33:59;;;;;;;4.68;2.00;;;;;;;5.16;93.06;102003.06;4987786;28;96811;-34
2021/12/12 01:36:42;;;;;;;4.78;2.17;;;;;;;5.18;93.20;102014.69;4987913;28;96679;-34
2021/12/12 01:39:10;;;;;;;3.90;1.98;;;;;;;5.20;93.04;102014.66;4971295;28;100943;-34
2021/12/12 01:41:50;;;;;;;5.60;1.77;;;;;;;5.25;92.99;102018.13;4987980;28;100904;-34
2021/12/12 01:44:40;;;;;;;1.00;0.55;;;;;;;5.25;93.46;102019.00;4972398;28;97017;-34
2021/12/12 01:47:07;;;;;;;3.10;1.50;;;;;;;5.27;93.34;102008.25;4987568;28;96808;-35
2021/12/12 01:49:35;;;;;;;5.07;2.05;;;;;;;5.24;93.64;102005.59;4970459;28;101414;-34
2021/12/12 01:52:05;;;;;;;5.70;2.00;;;;;;;5.22;93.29;102002.06;4971011;28;101246;-34
2021/12/12 01:54:43;;;;;;;6.20;2.67;;;;;;;5.22;93.69;102008.34;4970883;28;96616;-34
2021/12/12 01:57:11;;;;;;;5.25;1.50;;;;;;;5.23;93.74;102006.53;4971047;28;96589;-34
2021/12/12 01:59:37;;;;;;;7.93;2.45;;;;;;;5.24;93.73;102005.59;4987295;28;100855;-34
2021/12/12 02:02:11;;;;;;;4.68;2.30;;;;;;;5.20;94.19;101990.50;4987324;28;100772;-34
2021/12/12 02:04:41;;;;;;;9.35;2.50;;;;;;;5.21;94.23;101986.88;4987390;28;96607;-34
2021/12/12 02:07:09;;;;;;;2.80;1.77;;;;;;;5.21;94.09;101990.44;4987881;28;96747;-34
2021/12/12 02:09:35;;;;;;;4.63;1.88;;;;;;;5.24;94.06;101990.41;4970824;28;100949;-34
2021/12/12 02:12:03;;;;;;;7.45;1.98;;;;;;;5.22;94.13;101988.63;4987298;28;100794;-34
2021/12/12 02:14:32;;;;;;;5.50;2.97;;;;;;;5.29;94.13;102004.59;4989799;28;98353;-34
2021/12/12 02:17:09;;;;;;;4.40;1.50;;;;;;;5.26;94.18;101998.41;4991065;28;96663;-34
2021/12/12 02:20:02;;;;;;;13.93;1.83;;;;;;;5.31;94.05;102001.88;4974188;28;100902;-34
2021/12/12 02:36:10;;;;;;;7.65;2.97;;;;;;;5.41;94.38;102002.56;4975714;28;96552;-34
2021/12/12 02:38:35;;;;;;;7.07;2.53;;;;;;;5.39;94.39;101988.28;4974048;28;96792;-34
2021/12/12 02:41:13;;;;;;;2.85;1.73;;;;;;;5.44;94.49;101998.00;4974994;28;97944;-34
2021/12/12 02:43:47;;;;;;;5.07;1.40;;;;;;;5.43;94.94;101993.53;4973730;28;103663;-34
2021/12/12 02:46:17;;;;;;;4.72;2.33;;;;;;;5.46;94.76;101993.50;4975415;28;96633;-34
2021/12/12 02:48:48;;;;;;;4.35;1.98;;;;;;;5.50;94.47;101995.19;4973757;28;96786;-34
2021/12/12 02:51:17;;;;;;;1.77;0.82;;;;;;;5.48;95.01;101985.38;4973747;28;100860;-34
2021/12/12 02:53:54;;;;;;;4.30;2.03;;;;;;;5.52;95.05;101985.28;4973475;28;100685;-34
2021/12/12 02:56:36;;;;;;;1.52;1.02;;;;;;;5.50;94.77;101978.19;4975099;28;96615;-34
2021/12/12 02:59:06;;;;;;;1.20;0.60;;;;;;;5.51;94.62;101970.09;4974232;28;96602;-34
2021/12/12 03:01:42;;;;;;;6.50;2.42;;;;;;;5.57;94.71;101984.31;4973540;28;100893;-34
2021/12/12 03:04:08;;;;;;;4.63;2.33;;;;;;;5.56;94.44;101966.44;4974268;28;99082;-34
2021/12/12 03:06:37;;;;;;;3.78;2.60;;;;;;;5.54;94.10;101970.00;4974292;28;96566;-34
2021/12/12 03:09:08;;;;;;;7.00;2.58;;;;;;;5.61;94.25;101981.50;4973481;28;96833;-34
2021/12/12 03:11:33;;;;;;;4.18;2.83;;;;;;;5.61;94.19;101970.75;4974502;28;101156;-34
2021/12/12 03:13:59;;;;;;;2.22;1.02;;;;;;;5.62;94.44;101977.88;4974810;28;97784;-34
2021/12/12 03:16:25;;;;;;;8.50;3.45;;;;;;;5.58;94.19;101975.31;4975000;28;96571;-34
2021/12/12 03:18:50;;;;;;;3.63;2.50;;;;;;;5.63;94.18;101971.63;4974863;28;96981;-34
2021/12/12 03:21:30;;;;;;;15.45;4.35;;;;;;;5.65;94.50;101976.94;4974693;28;97397;-34
2021/12/12 03:23:59;;;;;;;6.50;3.95;;;;;;;5.54;93.86;101963.75;4974773;28;97816;-34
2021/12/12 03:26:25;;;;;;;10.55;3.85;;;;;;;5.62;94.12;101977.88;4972687;28;96598;-34
2021/12/12 03:28:54;;;;;;;6.18;3.38;;;;;;;5.57;94.55;101973.56;4974774;28;96741;-34
2021/12/12 03:31:33;;;;;;;9.77;2.60;;;;;;;5.52;95.08;101970.97;4973590;28;97912;-34
2021/12/12 03:34:03;;;;;;;6.25;3.47;;;;;;;5.61;94.40;101967.19;4972727;28;102327;-34
2021/12/12 03:36:28;;;;;;;4.13;2.47;;;;;;;5.62;94.82;101975.22;4989850;28;97085;-34
2021/12/12 03:39:03;;;;;;;6.35;3.83;;;;;;;5.57;94.68;101961.00;4974589;28;96766;-34
2021/12/12 03:41:31;;;;;;;5.05;3.13;;;;;;;5.60;94.80;101978.84;4973006;28;101171;-34
2021/12/12 03:44:01;;;;;;;7.50;3.63;;;;;;;5.57;94.80;101970.88;4972872;28;100842;-34
2021/12/12 03:46:27;;;;;;;7.53;3.38;;;;;;;5.63;94.80;101968.06;4973092;28;96528;-34
2021/12/12 03:48:54;;;;;;;6.65;3.10;;;;;;;5.60;94.93;101965.41;4973307;28;96800;-34
2021/12/12 03:51:23;;;;;;;3.92;2.58;;;;;;;5.62;94.76;101969.81;4972733;28;100847;-34
2021/12/12 03:53:49;;;;;;;6.50;3.17;;;;;;;5.60;94.94;101965.41;4989060;28;102850;-34
2021/12/12 03:56:15;;;;;;;7.55;5.13;;;;;;;5.65;95.05;101971.56;4973614;28;96624;-34
2021/12/12 03:58:42;;;;;;;3.10;2.35;;;;;;;5.61;94.86;101975.25;4989334;28;97047;-34
2021/12/12 04:01:32;;;;;;;5.78;2.78;;;;;;;5.69;95.07;101984.03;4972636;28;100894;-34
2021/12/12 04:04:08;;;;;;;7.55;3.78;;;;;;;5.64;95.32;101976.06;4973441;28;98377;-34
2021/12/12 04:06:34;;;;;;;6.68;4.13;;;;;;;5.63;94.74;101965.38;4973998;28;96530;-34
2021/12/12 04:09:00;;;;;;;7.47;3.50;;;;;;;5.66;95.38;101970.66;4973948;28;96618;-34
2021/12/12 04:11:34;;;;;;;9.82;4.68;;;;;;;5.67;94.87;101975.09;4973848;28;98391;-34
2021/12/12 04:14:00;;;;;;;11.02;4.53;;;;;;;5.66;94.74;101970.66;4974302;28;97879;-34
2021/12/12 04:16:27;;;;;;;10.55;4.38;;;;;;;5.68;94.78;101979.56;4989129;28;97049;-34
2021/12/12 04:18:53;;;;;;;12.18;4.85;;;;;;;5.73;94.94;101997.34;4972417;28;96836;-34
2021/12/12 04:21:21;;;;;;;7.38;3.28;;;;;;;5.73;94.96;102001.84;4971699;28;100802;-34
2021/12/12 04:23:47;;;;;;;8.20;5.50;;;;;;;5.71;94.97;101992.94;4956216;28;100945;-34
2021/12/12 04:26:25;;;;;;;7.78;3.65;;;;;;;5.71;95.30;101992.94;4973842;28;96679;-34
2021/12/12 04:29:06;;;;;;;12.85;6.97;;;;;;;5.75;94.78;101995.53;4972197;28;96642;-34
2021/12/12 04:31:52;;;;;;;7.25;4.03;;;;;;;5.74;95.25;101983.00;4973595;28;97757;-34
2021/12/12 04:34:20;;;;;;;9.00;4.35;;;;;;;5.74;95.21;101983.00;4973249;28;97898;-34
2021/12/12 04:36:47;;;;;;;12.88;7.18;;;;;;;5.77;95.00;101994.59;4971918;28;96500;-34
2021/12/12 04:39:26;;;;;;;13.00;5.68;;;;;;;5.80;95.12;101981.97;4972441;28;96914;-34
2021/12/12 04:41:55;;;;;;;7.32;5.15;;;;;;;5.77;95.16;101982.06;4972069;28;100808;-34
2021/12/12 04:44:24;;;;;;;11.02;5.32;;;;;;;5.80;95.24;101986.47;4971590;28;100946;-34
2021/12/12 04:49:56;;;;;;;11.75;4.05;;;;;;;5.78;95.58;101983.81;4973925;28;96682;-34
2021/12/12 04:52:46;;;;;;;8.13;4.40;;;;;;;5.84;95.81;101997.13;4971892;28;100788;-34
2021/12/12 04:55:25;;;;;;;9.95;6.22;;;;;;;5.84;95.23;101993.53;4971396;28;103448;-34
2021/12/12 04:58:03;;;;;;;9.50;5.63;;;;;;;5.86;95.10;101992.56;4971926;28;96645;-34
2021/12/12 05:00:33;;;;;;;8.73;4.72;;;;;;;5.83;95.30;101986.41;4988428;28;96654;-34
2021/12/12 05:03:12;;;;;;;13.35;5.78;;;;;;;5.89;95.41;101995.22;4971019;28;100787;-34
2021/12/12 05:05:45;;;;;;;10.23;4.78;;;;;;;5.90;95.50;101988.03;4973560;28;97756;-34
2021/12/12 05:08:31;;;;;;;15.63;5.68;;;;;;;5.87;95.51;101983.59;4971651;28;96626;-34
2021/12/12 05:11:05;;;;;;;8.75;5.13;;;;;;;5.88;95.73;101976.41;4971837;28;96638;-34
2021/12/12 05:13:38;;;;;;;9.20;3.40;;;;;;;5.88;95.73;101984.47;4972377;28;97530;-34
2021/12/12 05:16:12;;;;;;;10.43;5.35;;;;;;;5.90;95.41;101991.59;4973025;28;98366;-34
2021/12/12 05:18:49;;;;;;;13.45;6.45;;;;;;;5.97;95.35;101999.56;4971533;28;96647;-34
2021/12/12 05:21:19;;;;;;;13.05;5.90;;;;;;;5.88;95.54;101982.66;4971662;28;96806;-34
2021/12/12 05:23:49;;;;;;;11.27;5.05;;;;;;;5.95;95.82;102000.47;4987592;28;101128;-34
2021/12/12 05:26:20;;;;;;;10.98;4.32;;;;;;;5.98;96.10;102002.19;4971288;28;102159;-34
2021/12/12 05:28:53;;;;;;;13.10;6.50;;;;;;;5.93;95.99;101999.59;4971383;28;96678;-34
2021/12/12 05:31:21;;;;;;;14.95;6.43;;;;;;;5.99;95.78;102009.34;4971780;28;96807;-34
2021/12/12 05:33:51;;;;;;;13.35;6.28;;;;;;;6.04;96.00;102011.94;4971100;28;100936;-34
2021/12/12 05:36:17;;;;;;;16.88;7.22;;;;;;;6.06;95.74;102019.03;4987560;28;100464;-34
2021/12/12 05:38:43;;;;;;;15.68;6.78;;;;;;;6.03;95.75;102011.06;4970878;28;96973;-34
2021/12/12 05:41:10;;;;;;;16.55;7.90;;;;;;;6.05;96.06;102002.94;4987794;28;97039;-34
2021/12/12 05:43:35;;;;;;;11.73;5.93;;;;;;;6.12;95.60;102016.19;4970999;28;100775;-34
2021/12/12 05:46:03;;;;;;;14.75;8.00;;;;;;;6.08;95.60;102005.56;4972383;28;99232;-34
2021/12/12 05:48:29;;;;;;;16.42;8.55;;;;;;;6.12;95.43;102016.19;4970330;28;96780;-34
2021/12/12 05:50:55;;;;;;;13.63;7.07;;;;;;;6.12;95.72;102010.81;4972627;28;96948;-34
2021/12/12 05:53:21;;;;;;;10.20;5.90;;;;;;;6.15;96.04;102024.19;4971020;28;100784;-34
2021/12/12 05:55:49;;;;;;;17.15;7.47;;;;;;;6.15;96.32;102026.00;4972738;28;97360;-34
2021/12/12 05:58:19;;;;;;;14.75;5.53;;;;;;;6.23;96.04;102036.59;4971034;28;96553;-34
2021/12/12 06:00:49;;;;;;;16.42;6.60;;;;;;;6.24;95.97;102041.91;4971065;28;96780;-34
2021/12/12 06:03:27;;;;;;;20.23;8.32;;;;;;;6.21;96.07;102031.22;4969789;28;101592;-34
2021/12/12 06:05:55;;;;;;;15.70;8.18;;;;;;;6.25;95.52;102032.06;4987391;28;100895;-34
2021/12/12 06:08:23;;;;;;;20.48;6.65;;;;;;;6.29;95.71;102039.09;4970959;28;96696;-34
2021/12/12 06:10:50;;;;;;;12.88;6.75;;;;;;;6.27;96.15;102040.94;4987409;28;96845;-34
2021/12/12 06:13:19;;;;;;;14.20;6.65;;;;;;;6.26;95.93;102045.44;4970715;28;100868;-34
2021/12/12 06:15:50;;;;;;;19.35;6.78;;;;;;;6.29;96.13;102044.50;4970819;28;100469;-34
2021/12/12 06:18:17;;;;;;;22.08;8.18;;;;;;;6.30;96.00;102035.50;4971014;28;96577;-34
2021/12/12 06:20:44;;;;;;;14.20;6.05;;;;;;;6.34;95.96;102038.09;4987645;28;96853;-34
2021/12/12 06:23:11;;;;;;;9.93;4.80;;;;;;;6.32;96.50;102036.38;4970596;28;100804;-34
2021/12/12 06:25:37;;;;;;;11.35;5.93;;;;;;;6.34;96.24;102046.16;4987183;28;101361;-34
2021/12/12 06:28:08;;;;;;;22.88;7.15;;;;;;;6.41;96.06;102049.56;4986714;28;97083;-34
2021/12/12 06:30:34;;;;;;;13.23;5.97;;;;;;;6.37;96.05;102043.38;4970658;28;97017;-34
2021/12/12 06:32:59;;;;;;;13.60;6.05;;;;;;;6.45;95.96;102055.78;4971666;28;97430;-34
2021/12/12 06:35:25;;;;;;;24.50;7.30;;;;;;;6.46;96.14;102054.84;4971934;28;98181;-34
2021/12/12 06:37:51;;;;;;;18.23;7.38;;;;;;;6.43;96.02;102038.78;4970587;28;96609;-34
2021/12/12 06:40:19;;;;;;;25.92;9.45;;;;;;;6.47;96.06;102051.25;4987120;28;96810;-34
2021/12/12 06:42:47;;;;;;;15.27;5.55;;;;;;;6.47;96.27;102033.28;4986961;28;101106;-34
2021/12/12 06:45:13;;;;;;;13.05;5.65;;;;;;;6.52;96.27;102046.63;4970628;28;100745;-34
2021/12/12 06:47:39;;;;;;;12.48;6.80;;;;;;;6.49;96.20;102041.31;4972141;28;96592;-34
2021/12/12 06:50:05;;;;;;;18.65;8.85;;;;;;;6.52;96.30;102046.63;4970495;28;96854;-34
2021/12/12 06:52:31;;;;;;;23.52;8.30;;;;;;;6.50;96.24;102040.38;4986405;28;102201;-34
2021/12/12 06:54:57;;;;;;;9.23;5.30;;;;;;;6.53;96.45;102048.38;4971141;28;99074;-34
2021/12/12 06:57:23;;;;;;;13.82;5.55;;;;;;;6.52;96.51;102046.63;4970467;28;96616;-34
2021/12/12 06:59:50;;;;;;;21.77;8.38;;;;;;;6.58;96.38;102059.94;4974040;28;96716;-34
2021/12/12 07:02:17;;;;;;;19.42;7.55;;;;;;;6.54;96.71;102051.03;4973505;28;100859;-34
2021/12/12 07:04:44;;;;;;;19.40;5.90;;;;;;;6.59;96.53;102054.50;4973378;28;101248;-34
2021/12/12 07:07:12;;;;;;;17.15;6.75;;;;;;;6.57;96.35;102047.38;4973689;28;96641;-34
2021/12/12 07:09:39;;;;;;;21.13;7.95;;;;;;;6.62;96.50;102048.13;4990437;28;96491;-34
2021/12/12 07:12:09;;;;;;;11.38;6.15;;;;;;;6.60;96.43;102044.59;4973027;28;100970;-34
2021/12/12 07:14:37;;;;;;;18.15;7.10;;;;;;;6.62;96.46;102060.72;4973193;28;101033;-34
2021/12/12 07:17:03;;;;;;;17.40;6.93;;;;;;;6.67;96.61;102065.06;4972959;28;97206;-34
2021/12/12 07:19:29;;;;;;;12.45;5.18;;;;;;;6.64;96.60;102051.69;4973457;28;97078;-34
2021/12/12 07:21:59;;;;;;;21.83;7.43;;;;;;;6.69;96.49;102060.50;4974811;28;97995;-34
2021/12/12 07:24:25;;;;;;;25.98;8.10;;;;;;;6.71;96.41;102073.94;4973189;28;101077;-34
2021/12/12 07:26:51;;;;;;;11.10;5.15;;;;;;;6.71;96.33;102072.13;4974613;28;96575;-34
2021/12/12 07:29:17;;;;;;;16.85;6.03;;;;;;;6.71;96.63;102074.81;4974397;28;97755;-34
2021/12/12 07:31:42;;;;;;;16.63;6.97;;;;;;;6.73;96.20;102073.00;4974943;28;97297;-34
2021/12/12 07:34:11;;;;;;;18.23;7.07;;;;;;;6.74;96.49;102074.75;4974463;28;99228;-34
2021/12/12 07:36:41;;;;;;;25.90;8.48;;;;;;;6.75;96.58;102071.16;4974565;28;96507;-34
2021/12/12 07:39:10;;;;;;;15.55;6.50;;;;;;;6.74;96.36;102076.56;4973089;28;96787;-34
2021/12/12 07:41:36;;;;;;;14.77;6.18;;;;;;;6.75;96.55;102059.50;4989043;28;100908;-34
2021/12/12 07:44:07;;;;;;;12.57;6.30;;;;;;;6.82;96.48;102090.72;4972983;28;100777;-34
2021/12/12 07:46:34;;;;;;;25.17;6.78;;;;;;;6.82;96.32;102082.66;4973031;28;96578;-34
2021/12/12 07:49:00;;;;;;;17.08;6.90;;;;;;;6.81;96.57;102088.94;4974285;28;96765;-34
2021/12/12 07:51:26;;;;;;;11.18;5.75;;;;;;;6.86;96.67;102097.78;4974250;28;97340;-34
2021/12/12 07:53:57;;;;;;;13.85;6.88;;;;;;;6.85;97.00;102097.84;4972345;28;99219;-34
2021/12/12 07:56:26;;;;;;;15.00;6.68;;;;;;;6.77;96.86;102081.88;4972793;28;96642;-34
2021/12/12 07:58:52;;;;;;;15.75;6.72;;;;;;;6.88;97.00;102104.00;4989695;28;96834;-34
2021/12/12 08:01:18;;;;;;;17.60;6.15;;;;;;;6.81;96.80;102094.31;4972585;28;100680;-34
2021/12/12 08:03:44;;;;;;;14.32;6.53;;;;;;;6.84;96.68;102099.66;4973636;28;97812;-34
2021/12/12 08:06:14;;;;;;;17.02;7.70;;;;;;;6.85;96.82;102103.22;4972101;28;97838;-34
2021/12/12 08:08:40;;;;;;;24.77;9.10;;;;;;;6.93;96.54;102111.97;4972395;28;97184;-34
2021/12/12 08:11:06;;;;;;;20.00;8.15;;;;;;;6.90;96.91;102112.06;4988415;28;100487;-34
2021/12/12 08:13:32;;;;;;;13.65;6.30;;;;;;;6.95;96.73;102115.53;4972411;28;100839;-34
2021/12/12 08:16:00;;;;;;;9.82;5.28;;;;;;;6.92;96.80;102111.09;4973962;28;96593;-34
2021/12/12 08:18:25;;;;;;;25.45;8.68;;;;;;;6.95;96.76;102124.47;4988979;28;96871;-34
2021/12/12 08:20:53;;;;;;;18.33;6.15;;;;;;;6.97;96.71;102128.03;4972053;28;100827;-34
2021/12/12 08:23:23;;;;;;;16.67;5.82;;;;;;;7.01;96.77;102128.84;4973922;28;99437;-34
2021/12/12 08:25:50;;;;;;;34.33;5.00;;;;;;;6.98;96.81;102123.50;4972525;28;96633;-34
2021/12/12 08:28:19;;;;;;;13.27;6.88;;;;;;;7.01;97.17;102135.09;4972172;28;96725;-34
2021/12/12 08:30:45;;;;;;;14.68;5.28;;;;;;;7.05;96.98;102135.91;4973032;28;97624;-34
2021/12/12 08:33:12;;;;;;;15.63;5.75;;;;;;;7.02;96.91;102133.28;4971953;28;101242;-34
2021/12/12 08:35:38;;;;;;;17.40;5.80;;;;;;;7.06;96.93;102142.19;4972103;28;96550;-34
2021/12/12 08:38:10;;;;;;;11.45;4.85;;;;;;;7.07;97.18;102136.75;4972139;28;96724;-34
2021/12/12 08:40:42;;;;;;;12.93;6.38;;;;;;;7.08;97.40;102140.31;4972099;28;101257;-34
2021/12/12 08:43:13;;;;;;;32.90;9.32;;;;;;;7.17;96.77;102149.03;4972639;28;100908;-34
2021/12/12 08:45:45;;;;;;;19.88;7.22;;;;;;;7.15;96.69;102136.53;4956161;28;96600;-34
2021/12/12 08:48:10;;;;;;;;;;;;;;;7.21;96.94;102144.47;4989373;28;96773;-34
2021/12/12 08:50:38;;;;;;;10.95;5.05;;;;;;;7.19;96.93;102135.53;4973492;28;97771;-34
2021/12/12 08:53:08;;;;;;;10.55;4.13;;;;;;;7.25;96.78;102148.88;4972957;28;98949;-34
2021/12/12 08:55:43;;;;;;;7.43;4.20;;;;;;;7.22;97.09;102149.84;4938822;28;98650;-34
2021/12/12 08:58:17;;;;;;;17.90;7.40;;;;;;;7.27;96.73;102159.56;4973515;28;96589;-34
2021/12/12 09:00:57;;;;;;;7.78;4.57;;;;;;;7.27;96.89;102152.41;4973165;28;98023;-34
2021/12/12 09:03:34;;;;;;;12.77;5.30;;;;;;;7.32;96.99;102154.97;4971194;28;100729;-34
2021/12/12 09:06:00;;;;;;;18.20;5.25;;;;;;;7.34;96.92;102166.56;4956986;28;96821;-34
2021/12/12 09:08:36;;;;;;;10.23;4.75;;;;;;;7.36;97.01;102176.38;4972851;28;96846;-34
2021/12/12 09:11:09;;;;;;;12.07;4.93;;;;;;;7.40;96.71;102169.13;4971588;28;98957;-34
2021/12/12 09:13:49;;;;;;;9.25;4.82;;;;;;;7.40;97.04;102174.50;4971819;28;101649;-34
2021/12/12 09:16:38;;;;;;;16.98;5.57;;;;;;;7.43;96.72;102179.81;4988158;28;96492;-34
2021/12/12 09:19:09;;;;;;;19.90;5.85;;;;;;;7.38;96.47;102177.22;4971441;28;96688;-34
2021/12/12 09:22:36;;;;;;;15.77;5.30;;;;;;;7.45;97.04;102178.84;4972775;28;97324;-34
2021/12/12 09:25:04;;;;;;;7.20;3.95;;;;;;;7.48;97.15;102185.06;4967690;28;99946;-34
2021/12/12 09:27:38;;;;;;;10.85;4.55;;;;;;;7.44;96.52;102179.78;4972593;28;96530;-34
2021/12/12 09:30:15;;;;;;;11.13;5.30;;;;;;;7.51;96.96;102201.16;4971227;28;96826;-34
2021/12/12 09:32:41;;;;;;;9.07;4.43;;;;;;;7.53;96.77;102194.84;4971319;28;99017;-34
2021/12/12 09:35:14;;;;;;;9.32;3.78;;;;;;;7.51;96.67;102196.69;4970913;28;99636;-34
2021/12/12 09:37:42;;;;;;;8.90;4.20;;;;;;;7.56;96.68;102200.13;4971480;28;97017;-34
2021/12/12 09:40:16;;;;;;;11.50;4.57;;;;;;;7.55;97.00;102195.66;4972956;28;96841;-34
2021/12/12 09:43:22;;;;;;;13.35;4.10;;;;;;;7.59;96.84;102205.44;4971029;28;100206;-34
2021/12/12 09:46:00;;;;;;;6.70;3.47;;;;;;;7.59;96.99;102202.72;4970901;28;100967;-34
2021/12/12 09:52:03;;;;;;;8.75;3.35;;;;;;;7.61;96.91;102211.66;4971414;28;96637;-34
2021/12/12 09:55:27;;;;;;;5.97;2.58;;;;;;;7.63;97.39;102211.63;4970763;28;98162;-34
2021/12/12 09:57:57;;;;;;;5.35;3.05;;;;;;;7.55;97.06;102192.94;4917706;28;97993;-33
2021/12/12 10:00:29;;;;;;;5.97;3.75;;;;;;;7.62;97.00;102202.63;4987657;28;96567;-34
2021/12/12 10:03:16;;;;;;;7.30;4.18;;;;;;;7.70;97.09;102207.84;4970237;28;96893;-34
2021/12/12 10:05:48;;;;;;;6.85;3.35;;;;;;;7.71;97.02;102204.22;4970849;28;101236;-34
2021/12/12 10:08:45;;;;;;;6.63;3.63;;;;;;;7.75;97.13;102210.41;4972658;28;97815;-34
2021/12/12 10:11:38;;;;;;;7.18;2.83;;;;;;;7.79;97.32;102212.97;4972091;28;96889;-34
2021/12/12 10:14:20;;;;;;;7.13;3.25;;;;;;;7.83;97.23;102225.44;4970844;28;96649;-34
2021/12/12 10:16:58;;;;;;;10.13;3.22;;;;;;;7.76;96.69;102193.28;4970224;28;100892;-34
2021/12/12 10:19:46;;;;;;;10.02;4.57;;;;;;;7.84;96.88;102202.03;4972107;28;99211;-35
2021/12/12 10:22:16;;;;;;;6.82;3.22;;;;;;;7.91;97.16;102205.47;4970828;28;96645;-34
2021/12/12 10:25:13;;;;;;;8.85;4.43;;;;;;;7.96;96.99;102199.03;4970865;28;96673;-34
2021/12/12 10:27:59;;;;;;;5.22;3.45;;;;;;;7.99;96.88;102203.44;4982580;28;101349;-34
2021/12/12 10:30:27;;;;;;;8.68;3.50;;;;;;;8.01;96.69;102207.88;4970592;28;101000;-34
2021/12/12 10:33:20;;;;;;;8.05;3.78;;;;;;;8.05;97.10;102211.34;4971860;28;96564;-34
2021/12/12 10:35:47;;;;;;;;;;;;;;;8.07;97.13;102210.38;4976227;28;96616;-34
2021/12/12 10:38:26;;;;;;;4.18;2.85;;;;;;;8.07;97.19;102214.88;4975275;28;97930;-34
2021/12/12 10:41:17;;;;;;;3.38;2.17;;;;;;;8.08;96.98;102204.06;4973865;28;101002;-34
2021/12/12 10:43:53;;;;;;;10.98;4.72;;;;;;;8.08;96.90;102209.44;4973543;28;96898;-34
2021/12/12 10:46:43;;;;;;;6.80;3.28;;;;;;;8.09;97.33;102210.34;4973940;28;96831;-34
2021/12/12 10:49:35;;;;;;;5.38;2.40;;;;;;;8.08;97.06;102201.34;4975133;28;99618;-34
2021/12/12 10:52:15;;;;;;;9.60;4.35;;;;;;;8.15;96.87;102202.06;4973728;28;100759;-34
2021/12/12 10:54:51;;;;;;;5.45;3.35;;;;;;;8.18;97.24;102215.47;4974784;28;97432;-34
2021/12/12 10:57:24;;;;;;;7.03;3.53;;;;;;;8.18;97.43;102210.06;4973832;28;96738;-34
2021/12/12 10:59:55;;;;;;;5.90;3.42;;;;;;;8.22;97.44;102206.34;4975198;28;98007;-34
2021/12/12 11:02:32;;;;;;;8.48;3.55;;;;;;;8.20;97.23;102208.22;4974470;28;122058;-34
2021/12/12 11:05:29;;;;;;;5.82;3.15;;;;;;;8.28;97.02;102207.97;4975300;28;96478;-34
2021/12/12 11:08:08;;;;;;;4.72;2.92;;;;;;;8.30;97.27;102207.00;4974638;28;97802;-34
2021/12/12 11:10:38;;;;;;;5.05;2.70;;;;;;;8.31;97.29;102213.25;4973027;28;100855;-34
2021/12/12 11:13:24;;;;;;;6.93;3.60;;;;;;;8.30;97.10;102211.50;4990001;28;102777;-34
2021/12/12 11:15:56;;;;;;;5.85;3.30;;;;;;;8.31;97.32;102210.56;4973340;28;97220;-34
2021/12/12 11:18:40;;;;;;;4.95;2.67;;;;;;;8.35;96.95;102220.34;4990038;28;96610;-34
2021/12/12 11:21:15;;;;;;;5.18;2.85;;;;;;;8.35;97.46;102217.66;4973285;28;101169;-34
2021/12/12 11:24:03;;;;;;;7.57;3.03;;;;;;;8.37;97.19;102221.19;4973253;28;101229;-34
2021/12/12 11:26:40;;;;;;;5.43;2.83;;;;;;;8.33;97.15;102205.13;4973441;28;96543;-34
2021/12/12 11:29:24;;;;;;;6.43;3.20;;;;;;;8.36;97.37;102215.84;4990455;28;96671;-34
2021/12/12 11:32:06;;;;;;;8.77;3.00;;;;;;;8.43;97.08;102214.75;4989909;28;101234;-34
2021/12/12 11:34:32;;;;;;;8.15;2.95;;;;;;;8.44;97.25;102214.72;4974150;28;99552;-34
2021/12/12 11:37:23;;;;;;;7.55;3.05;;;;;;;8.47;97.32;102217.31;4972749;28;97241;-34
2021/12/12 11:40:01;;;;;;;6.00;3.20;;;;;;;8.45;97.19;102212.88;4973992;28;100001;-34
2021/12/12 11:42:46;;;;;;;5.68;2.42;;;;;;;8.53;97.15;102218.91;4974557;28;97985;-34
2021/12/12 11:45:18;;;;;;;7.45;2.75;;;;;;;8.55;97.28;102219.75;4972310;28;105077;-34
2021/12/12 11:48:15;;;;;;;6.00;3.15;;;;;;;8.60;97.27;102228.59;4973777;28;109883;-34
2021/12/12 11:50:46;;;;;;;4.68;2.90;;;;;;;8.62;97.22;102224.03;4980208;28;96964;-34
2021/12/12 11:53:24;;;;;;;4.93;2.47;;;;;;;8.64;97.36;102229.41;4972689;28;101347;-34
2021/12/12 11:55:54;;;;;;;8.50;2.25;;;;;;;8.67;97.06;102232.00;4974405;28;97829;-34
2021/12/12 11:58:22;;;;;;;5.45;2.33;;;;;;;8.69;97.24;102225.63;4972875;28;97112;-34
2021/12/12 12:01:01;;;;;;;5.70;2.90;;;;;;;8.66;97.51;102224.84;4972864;28;96829;-34
2021/12/12 12:03:56;;;;;;;3.75;2.25;;;;;;;8.73;97.33;102233.66;4988057;28;100874;-34
2021/12/12 12:06:46;;;;;;;4.97;2.72;;;;;;;8.73;97.35;102229.13;4971980;28;97910;-34
2021/12/12 12:09:34;;;;;;;3.95;2.30;;;;;;;8.72;97.41;102221.94;4974224;28;96606;-34
2021/12/12 12:12:10;;;;;;;7.22;2.85;;;;;;;8.78;97.26;102239.78;4988957;28;96667;-34
2021/12/12 12:15:03;;;;;;;2.80;1.50;;;;;;;8.75;97.32;102227.25;4989041;28;101109;-34